DAL962 KSLC-KEUG
Flight info
| Callsign | DAL962 |
|---|---|
| Flight time | 1h 29m |
| Altitude | 38000 |
| Route | CGULL1 TWF J15 BOI DSD EUG |
| Aircraft | B738/M-SDE2E3FGHIRWXY/LB1 |
Departure
| Time | 2026-04-25 23:58 |
|---|---|
| Airport | Salt Lake City International Airport (KSLC) |
Arrival
| Time | 2026-04-26 01:27 |
|---|---|
| Airport | Eugene Airport (KEUG) |
| Time | Latitude | Longitude | Altitude | Speed | Heading |
|---|---|---|---|---|---|
| 2026-04-25 23:40 | 40.78561 | -111.97896 | 4231 ft | 0 kts | 354° |
| 2026-04-25 23:49 | 40.78545 | -111.97895 | 4231 ft | 2 kts | 355° |
| 2026-04-25 23:50 | 40.78535 | -111.97894 | 4231 ft | 2 kts | 351° |
| 2026-04-25 23:50 | 40.78520 | -111.97891 | 4231 ft | 2 kts | 355° |
| 2026-04-25 23:50 | 40.78505 | -111.97890 | 4231 ft | 2 kts | 17° |
| 2026-04-25 23:50 | 40.78492 | -111.97901 | 4231 ft | 2 kts | 58° |
| 2026-04-25 23:51 | 40.78489 | -111.97912 | 4231 ft | 1 kts | 82° |
| 2026-04-25 23:51 | 40.78489 | -111.97920 | 4231 ft | 0 kts | 83° |
| 2026-04-25 23:53 | 40.78491 | -111.97905 | 4231 ft | 7 kts | 78° |
| 2026-04-25 23:53 | 40.78509 | -111.97791 | 4231 ft | 14 kts | 78° |
| 2026-04-25 23:53 | 40.78503 | -111.97669 | 4231 ft | 13 kts | 140° |
| 2026-04-25 23:54 | 40.78403 | -111.97642 | 4232 ft | 20 kts | 175° |
| 2026-04-25 23:54 | 40.78221 | -111.97620 | 4232 ft | 27 kts | 175° |
| 2026-04-25 23:54 | 40.78034 | -111.97599 | 4232 ft | 26 kts | 175° |
| 2026-04-25 23:54 | 40.77861 | -111.97535 | 4232 ft | 25 kts | 165° |
| 2026-04-25 23:55 | 40.77686 | -111.97508 | 4232 ft | 25 kts | 174° |
| 2026-04-25 23:55 | 40.77536 | -111.97489 | 4232 ft | 17 kts | 173° |
| 2026-04-25 23:55 | 40.77470 | -111.97477 | 4232 ft | 0 kts | 152° |
| 2026-04-25 23:56 | 40.77451 | -111.97442 | 4232 ft | 10 kts | 102° |
| 2026-04-25 23:57 | 40.77476 | -111.97350 | 4232 ft | 10 kts | 53° |
| 2026-04-25 23:57 | 40.77544 | -111.97324 | 4232 ft | 12 kts | 356° |
| 2026-04-25 23:57 | 40.77850 | -111.97361 | 4232 ft | 79 kts | 354° |
| 2026-04-25 23:57 | 40.78625 | -111.97450 | 4229 ft | 143 kts | 354° |
| 2026-04-25 23:58 | 40.79785 | -111.97583 | 4309 ft | 186 kts | 355° |
| 2026-04-25 23:58 | 40.81043 | -111.97736 | 5160 ft | 180 kts | 350° |
| 2026-04-25 23:58 | 40.82173 | -111.98399 | 5807 ft | 188 kts | 316° |
| 2026-04-25 23:58 | 40.82879 | -111.99879 | 6282 ft | 199 kts | 292° |
| 2026-04-25 23:59 | 40.83371 | -112.01652 | 6720 ft | 213 kts | 290° |
| 2026-04-25 23:59 | 40.83894 | -112.03545 | 7156 ft | 227 kts | 290° |
| 2026-04-25 23:59 | 40.84547 | -112.05496 | 7514 ft | 246 kts | 302° |
| 2026-04-25 23:59 | 40.85655 | -112.07322 | 7968 ft | 263 kts | 311° |
| 2026-04-26 00:00 | 40.87349 | -112.09772 | 8700 ft | 281 kts | 309° |
| 2026-04-26 00:00 | 40.88199 | -112.11088 | 9112 ft | 288 kts | 308° |
| 2026-04-26 00:00 | 40.89463 | -112.13138 | 9831 ft | 294 kts | 306° |
| 2026-04-26 00:00 | 40.90734 | -112.15258 | 10580 ft | 298 kts | 306° |
| 2026-04-26 00:01 | 40.92036 | -112.17449 | 11083 ft | 312 kts | 306° |
| 2026-04-26 00:01 | 40.93405 | -112.19752 | 11595 ft | 325 kts | 306° |
| 2026-04-26 00:01 | 40.94828 | -112.22141 | 12063 ft | 340 kts | 306° |
| 2026-04-26 00:01 | 40.96307 | -112.24620 | 12558 ft | 352 kts | 306° |
| 2026-04-26 00:02 | 40.97836 | -112.27175 | 13321 ft | 357 kts | 306° |
| 2026-04-26 00:02 | 40.99367 | -112.29736 | 14143 ft | 359 kts | 306° |
| 2026-04-26 00:02 | 41.00913 | -112.32327 | 14935 ft | 361 kts | 305° |
| 2026-04-26 00:02 | 41.02470 | -112.34943 | 15718 ft | 364 kts | 305° |
| 2026-04-26 00:03 | 41.04034 | -112.37573 | 16501 ft | 366 kts | 305° |
| 2026-04-26 00:03 | 41.05633 | -112.40166 | 17265 ft | 368 kts | 307° |
| 2026-04-26 00:03 | 41.07418 | -112.42615 | 17986 ft | 374 kts | 314° |
| 2026-04-26 00:03 | 41.09454 | -112.44778 | 18688 ft | 380 kts | 319° |
| 2026-04-26 00:04 | 41.11634 | -112.46748 | 19337 ft | 386 kts | 322° |
| 2026-04-26 00:04 | 41.13916 | -112.48654 | 20040 ft | 389 kts | 323° |
| 2026-04-26 00:04 | 41.16205 | -112.50523 | 20692 ft | 391 kts | 323° |
| 2026-04-26 00:04 | 41.18512 | -112.52478 | 21252 ft | 395 kts | 321° |
| 2026-04-26 00:05 | 41.20757 | -112.54609 | 21913 ft | 396 kts | 319° |
| 2026-04-26 00:05 | 41.22935 | -112.56808 | 22509 ft | 399 kts | 318° |
| 2026-04-26 00:05 | 41.25119 | -112.59066 | 23094 ft | 401 kts | 317° |
| 2026-04-26 00:05 | 41.27288 | -112.61425 | 23684 ft | 402 kts | 314° |
| 2026-04-26 00:06 | 41.29292 | -112.63966 | 24223 ft | 403 kts | 310° |
| 2026-04-26 00:06 | 41.31226 | -112.66677 | 24744 ft | 405 kts | 307° |
| 2026-04-26 00:06 | 41.33111 | -112.69443 | 25323 ft | 406 kts | 306° |
| 2026-04-26 00:06 | 41.35014 | -112.72285 | 25798 ft | 410 kts | 306° |
| 2026-04-26 00:07 | 41.36887 | -112.75090 | 26280 ft | 413 kts | 306° |
| 2026-04-26 00:07 | 41.38806 | -112.77953 | 26803 ft | 414 kts | 306° |
| 2026-04-26 00:07 | 41.40736 | -112.80822 | 27307 ft | 416 kts | 305° |
| 2026-04-26 00:07 | 41.42640 | -112.83698 | 27667 ft | 421 kts | 304° |
| 2026-04-26 00:08 | 41.44557 | -112.86637 | 28144 ft | 422 kts | 304° |
| 2026-04-26 00:08 | 41.46490 | -112.89615 | 28627 ft | 424 kts | 303° |
| 2026-04-26 00:08 | 41.48413 | -112.92580 | 29072 ft | 426 kts | 303° |
| 2026-04-26 00:08 | 41.50328 | -112.95531 | 29714 ft | 422 kts | 303° |
| 2026-04-26 00:09 | 41.52251 | -112.98483 | 30391 ft | 418 kts | 303° |
| 2026-04-26 00:09 | 41.54133 | -113.01374 | 30979 ft | 415 kts | 303° |
| 2026-04-26 00:09 | 41.56010 | -113.04261 | 31525 ft | 414 kts | 302° |
| 2026-04-26 00:09 | 41.57893 | -113.07158 | 32087 ft | 411 kts | 302° |
| 2026-04-26 00:10 | 41.59747 | -113.10014 | 32623 ft | 408 kts | 302° |
| 2026-04-26 00:10 | 41.61609 | -113.12884 | 33150 ft | 406 kts | 302° |
| 2026-04-26 00:10 | 41.63458 | -113.15739 | 33606 ft | 404 kts | 302° |
| 2026-04-26 00:10 | 41.65279 | -113.18551 | 34083 ft | 402 kts | 301° |
| 2026-04-26 00:11 | 41.67096 | -113.21361 | 34500 ft | 400 kts | 301° |
| 2026-04-26 00:11 | 41.68922 | -113.24193 | 34734 ft | 401 kts | 302° |
| 2026-04-26 00:11 | 41.70731 | -113.27000 | 34982 ft | 402 kts | 302° |
| 2026-04-26 00:11 | 41.72549 | -113.29826 | 35201 ft | 402 kts | 302° |
| 2026-04-26 00:12 | 41.74378 | -113.32669 | 35370 ft | 404 kts | 302° |
| 2026-04-26 00:12 | 41.78033 | -113.38358 | 35704 ft | 406 kts | 303° |
| 2026-04-26 00:12 | 41.79867 | -113.41207 | 35957 ft | 404 kts | 303° |
| 2026-04-26 00:13 | 41.81707 | -113.44067 | 36305 ft | 402 kts | 303° |
| 2026-04-26 00:13 | 41.83519 | -113.46889 | 36452 ft | 405 kts | 303° |
| 2026-04-26 00:13 | 41.85366 | -113.49774 | 36608 ft | 407 kts | 303° |
| 2026-04-26 00:13 | 41.87187 | -113.52621 | 36804 ft | 408 kts | 303° |
| 2026-04-26 00:14 | 41.89043 | -113.55525 | 37018 ft | 408 kts | 304° |
| 2026-04-26 00:14 | 41.90882 | -113.58399 | 37327 ft | 406 kts | 304° |
| 2026-04-26 00:14 | 41.92708 | -113.61256 | 37572 ft | 405 kts | 304° |
| 2026-04-26 00:14 | 41.94545 | -113.64136 | 37699 ft | 406 kts | 304° |
| 2026-04-26 00:15 | 41.96381 | -113.67019 | 37802 ft | 408 kts | 304° |
| 2026-04-26 00:15 | 42.00069 | -113.72824 | 37806 ft | 416 kts | 304° |
| 2026-04-26 00:16 | 42.03841 | -113.78770 | 37810 ft | 422 kts | 304° |
| 2026-04-26 00:16 | 42.07676 | -113.84821 | 37817 ft | 423 kts | 304° |
| 2026-04-26 00:17 | 42.11460 | -113.90793 | 37814 ft | 423 kts | 304° |
| 2026-04-26 00:17 | 42.15287 | -113.96854 | 37805 ft | 424 kts | 304° |
| 2026-04-26 00:18 | 42.19081 | -114.02868 | 37800 ft | 422 kts | 304° |
| 2026-04-26 00:18 | 42.22885 | -114.08885 | 37803 ft | 425 kts | 305° |
| 2026-04-26 00:19 | 42.26720 | -114.14959 | 37802 ft | 424 kts | 305° |
| 2026-04-26 00:19 | 42.30542 | -114.21027 | 37809 ft | 425 kts | 305° |
| 2026-04-26 00:20 | 42.34358 | -114.27101 | 37819 ft | 423 kts | 304° |
| 2026-04-26 00:20 | 42.38132 | -114.33124 | 37818 ft | 423 kts | 304° |
| 2026-04-26 00:21 | 42.41925 | -114.39191 | 37816 ft | 424 kts | 305° |
| 2026-04-26 00:21 | 42.45729 | -114.45286 | 37820 ft | 424 kts | 305° |
| 2026-04-26 00:22 | 42.49554 | -114.51403 | 37822 ft | 426 kts | 306° |
| 2026-04-26 00:22 | 42.53453 | -114.57446 | 37826 ft | 426 kts | 306° |
| 2026-04-26 00:23 | 42.57371 | -114.63464 | 37824 ft | 426 kts | 306° |
| 2026-04-26 00:23 | 42.61268 | -114.69473 | 37819 ft | 427 kts | 306° |
| 2026-04-26 00:24 | 42.65188 | -114.75549 | 37817 ft | 427 kts | 306° |
| 2026-04-26 00:24 | 42.69066 | -114.81583 | 37813 ft | 427 kts | 306° |
| 2026-04-26 00:25 | 42.72981 | -114.87690 | 37812 ft | 428 kts | 306° |
| 2026-04-26 00:25 | 42.76865 | -114.93761 | 37811 ft | 428 kts | 306° |
| 2026-04-26 00:26 | 42.80747 | -114.99847 | 37811 ft | 428 kts | 306° |
| 2026-04-26 00:26 | 42.84623 | -115.05933 | 37802 ft | 427 kts | 306° |
| 2026-04-26 00:27 | 42.88516 | -115.12062 | 37793 ft | 428 kts | 306° |
| 2026-04-26 00:27 | 42.92413 | -115.18209 | 37779 ft | 428 kts | 306° |
| 2026-04-26 00:28 | 42.96279 | -115.24316 | 37782 ft | 428 kts | 306° |
| 2026-04-26 00:28 | 43.00166 | -115.30467 | 37786 ft | 429 kts | 306° |
| 2026-04-26 00:29 | 43.04059 | -115.36649 | 37782 ft | 429 kts | 306° |
| 2026-04-26 00:29 | 43.07930 | -115.42807 | 37793 ft | 430 kts | 306° |
| 2026-04-26 00:30 | 43.11838 | -115.49033 | 37799 ft | 432 kts | 306° |
| 2026-04-26 00:30 | 43.15728 | -115.55241 | 37791 ft | 432 kts | 306° |
| 2026-04-26 00:31 | 43.19604 | -115.61440 | 37787 ft | 431 kts | 306° |
| 2026-04-26 00:31 | 43.23497 | -115.67684 | 37795 ft | 432 kts | 306° |
| 2026-04-26 00:32 | 43.27403 | -115.73965 | 37804 ft | 432 kts | 306° |
| 2026-04-26 00:32 | 43.33235 | -115.83364 | 37805 ft | 435 kts | 306° |
| 2026-04-26 00:33 | 43.37153 | -115.89698 | 37807 ft | 437 kts | 306° |
| 2026-04-26 00:33 | 43.41063 | -115.96029 | 37808 ft | 437 kts | 306° |
| 2026-04-26 00:34 | 43.44982 | -116.02384 | 37811 ft | 436 kts | 306° |
| 2026-04-26 00:34 | 43.48879 | -116.08724 | 37808 ft | 437 kts | 306° |
| 2026-04-26 00:35 | 43.52755 | -116.15166 | 37815 ft | 436 kts | 303° |
| 2026-04-26 00:35 | 43.55633 | -116.22360 | 37827 ft | 427 kts | 287° |
| 2026-04-26 00:36 | 43.57163 | -116.30197 | 37834 ft | 426 kts | 281° |
| 2026-04-26 00:36 | 43.58400 | -116.38161 | 37821 ft | 426 kts | 280° |
| 2026-04-26 00:37 | 43.59627 | -116.46159 | 37835 ft | 428 kts | 280° |
| 2026-04-26 00:37 | 43.60866 | -116.54133 | 37832 ft | 427 kts | 280° |
| 2026-04-26 00:38 | 43.62113 | -116.62120 | 37835 ft | 429 kts | 281° |
| 2026-04-26 00:38 | 43.63370 | -116.70158 | 37831 ft | 427 kts | 280° |
| 2026-04-26 00:39 | 43.64607 | -116.78095 | 37818 ft | 427 kts | 280° |
| 2026-04-26 00:39 | 43.65849 | -116.86114 | 37827 ft | 429 kts | 280° |
| 2026-04-26 00:40 | 43.67090 | -116.94159 | 37817 ft | 428 kts | 280° |
| 2026-04-26 00:40 | 43.68313 | -117.02141 | 37811 ft | 428 kts | 280° |
| 2026-04-26 00:41 | 43.69546 | -117.10220 | 37810 ft | 433 kts | 280° |
| 2026-04-26 00:41 | 43.70781 | -117.18346 | 37813 ft | 431 kts | 280° |
| 2026-04-26 00:42 | 43.71997 | -117.26382 | 37797 ft | 428 kts | 280° |
| 2026-04-26 00:42 | 43.73211 | -117.34456 | 37786 ft | 432 kts | 281° |
| 2026-04-26 00:43 | 43.74420 | -117.42534 | 37799 ft | 434 kts | 281° |
| 2026-04-26 00:43 | 43.75640 | -117.50726 | 37797 ft | 434 kts | 281° |
| 2026-04-26 00:44 | 43.76851 | -117.58894 | 37804 ft | 434 kts | 281° |
| 2026-04-26 00:44 | 43.78045 | -117.66997 | 37809 ft | 435 kts | 280° |
| 2026-04-26 00:45 | 43.79248 | -117.75211 | 37804 ft | 435 kts | 280° |
| 2026-04-26 00:45 | 43.80439 | -117.83374 | 37809 ft | 436 kts | 280° |
| 2026-04-26 00:46 | 43.81630 | -117.91589 | 37810 ft | 436 kts | 280° |
| 2026-04-26 00:46 | 43.82811 | -117.99781 | 37809 ft | 437 kts | 280° |
| 2026-04-26 00:47 | 43.83998 | -118.08045 | 37807 ft | 438 kts | 280° |
| 2026-04-26 00:47 | 43.85175 | -118.16293 | 37807 ft | 439 kts | 280° |
| 2026-04-26 00:48 | 43.86347 | -118.24554 | 37805 ft | 439 kts | 280° |
| 2026-04-26 00:48 | 43.87516 | -118.32836 | 37802 ft | 439 kts | 281° |
| 2026-04-26 00:49 | 43.88667 | -118.41036 | 37807 ft | 438 kts | 281° |
| 2026-04-26 00:49 | 43.89830 | -118.49359 | 37802 ft | 438 kts | 281° |
| 2026-04-26 00:50 | 43.90978 | -118.57626 | 37800 ft | 438 kts | 281° |
| 2026-04-26 00:50 | 43.92119 | -118.65894 | 37799 ft | 438 kts | 280° |
| 2026-04-26 00:51 | 43.93256 | -118.74184 | 37798 ft | 439 kts | 280° |
| 2026-04-26 00:51 | 43.94393 | -118.82508 | 37805 ft | 441 kts | 280° |
| 2026-04-26 00:52 | 43.95521 | -118.90816 | 37813 ft | 440 kts | 280° |
| 2026-04-26 00:52 | 43.96643 | -118.99135 | 37820 ft | 442 kts | 280° |
| 2026-04-26 00:53 | 43.97766 | -119.07504 | 37817 ft | 441 kts | 280° |
| 2026-04-26 00:53 | 43.98878 | -119.15836 | 37817 ft | 440 kts | 280° |
| 2026-04-26 00:54 | 43.99985 | -119.24181 | 37814 ft | 440 kts | 280° |
| 2026-04-26 00:54 | 44.01084 | -119.32514 | 37814 ft | 440 kts | 280° |
| 2026-04-26 00:55 | 44.02173 | -119.40819 | 37812 ft | 441 kts | 281° |
| 2026-04-26 00:55 | 44.03262 | -119.49184 | 37809 ft | 442 kts | 280° |
| 2026-04-26 00:56 | 44.04351 | -119.57589 | 37808 ft | 441 kts | 280° |
| 2026-04-26 00:56 | 44.05425 | -119.65932 | 37810 ft | 441 kts | 280° |
| 2026-04-26 00:57 | 44.06495 | -119.74292 | 37804 ft | 441 kts | 280° |
| 2026-04-26 00:57 | 44.07560 | -119.82666 | 37806 ft | 441 kts | 280° |
| 2026-04-26 00:58 | 44.08621 | -119.91054 | 37803 ft | 443 kts | 280° |
| 2026-04-26 00:58 | 44.09680 | -119.99480 | 37803 ft | 442 kts | 280° |
| 2026-04-26 00:59 | 44.10727 | -120.07871 | 37818 ft | 444 kts | 280° |
| 2026-04-26 00:59 | 44.11774 | -120.16308 | 37818 ft | 442 kts | 280° |
| 2026-04-26 01:00 | 44.12814 | -120.24739 | 37814 ft | 442 kts | 280° |
| 2026-04-26 01:00 | 44.13841 | -120.33124 | 37811 ft | 443 kts | 280° |
| 2026-04-26 01:01 | 44.14866 | -120.41541 | 37806 ft | 438 kts | 280° |
| 2026-04-26 01:01 | 44.15365 | -120.45659 | 37654 ft | 428 kts | 280° |
| 2026-04-26 01:01 | 44.15855 | -120.49720 | 37332 ft | 422 kts | 280° |
| 2026-04-26 01:02 | 44.16334 | -120.53703 | 36839 ft | 421 kts | 280° |
| 2026-04-26 01:02 | 44.16818 | -120.57734 | 36269 ft | 422 kts | 281° |
| 2026-04-26 01:02 | 44.17296 | -120.61725 | 35673 ft | 423 kts | 281° |
| 2026-04-26 01:02 | 44.17773 | -120.65722 | 35169 ft | 421 kts | 280° |
| 2026-04-26 01:03 | 44.18254 | -120.69759 | 34663 ft | 420 kts | 280° |
| 2026-04-26 01:03 | 44.18722 | -120.73713 | 34171 ft | 418 kts | 280° |
| 2026-04-26 01:03 | 44.19190 | -120.77664 | 33685 ft | 417 kts | 280° |
| 2026-04-26 01:03 | 44.19657 | -120.81636 | 33197 ft | 416 kts | 281° |
| 2026-04-26 01:04 | 44.20123 | -120.85603 | 32722 ft | 416 kts | 281° |
| 2026-04-26 01:04 | 44.20585 | -120.89551 | 32234 ft | 417 kts | 281° |
| 2026-04-26 01:04 | 44.21048 | -120.93516 | 31739 ft | 417 kts | 281° |
| 2026-04-26 01:04 | 44.21510 | -120.97483 | 31231 ft | 418 kts | 282° |
| 2026-04-26 01:05 | 44.21977 | -121.01500 | 30714 ft | 418 kts | 282° |
| 2026-04-26 01:05 | 44.22435 | -121.05465 | 30126 ft | 419 kts | 282° |
| 2026-04-26 01:05 | 44.22893 | -121.09431 | 29573 ft | 417 kts | 282° |
| 2026-04-26 01:05 | 44.23348 | -121.13397 | 29050 ft | 414 kts | 282° |
| 2026-04-26 01:06 | 44.23801 | -121.17355 | 28541 ft | 411 kts | 282° |
| 2026-04-26 01:06 | 44.24244 | -121.21240 | 28041 ft | 408 kts | 282° |
| 2026-04-26 01:06 | 44.24685 | -121.25123 | 27534 ft | 405 kts | 282° |
| 2026-04-26 01:06 | 44.25033 | -121.28970 | 27031 ft | 403 kts | 278° |
| 2026-04-26 01:07 | 44.25148 | -121.32881 | 26520 ft | 403 kts | 272° |
| 2026-04-26 01:07 | 44.25036 | -121.36747 | 26014 ft | 401 kts | 269° |
| 2026-04-26 01:07 | 44.24812 | -121.40627 | 25494 ft | 399 kts | 268° |
| 2026-04-26 01:07 | 44.24547 | -121.44456 | 24967 ft | 397 kts | 267° |
| 2026-04-26 01:08 | 44.24275 | -121.48243 | 24470 ft | 393 kts | 268° |
| 2026-04-26 01:08 | 44.24009 | -121.51984 | 23976 ft | 390 kts | 268° |
| 2026-04-26 01:08 | 44.23751 | -121.55742 | 23491 ft | 387 kts | 268° |
| 2026-04-26 01:08 | 44.23502 | -121.59454 | 22994 ft | 384 kts | 268° |
| 2026-04-26 01:09 | 44.23262 | -121.63113 | 22519 ft | 380 kts | 268° |
| 2026-04-26 01:09 | 44.23026 | -121.66760 | 22035 ft | 377 kts | 267° |
| 2026-04-26 01:09 | 44.22795 | -121.70355 | 21553 ft | 373 kts | 267° |
| 2026-04-26 01:09 | 44.22567 | -121.73902 | 21082 ft | 370 kts | 267° |
| 2026-04-26 01:10 | 44.22338 | -121.77445 | 20609 ft | 366 kts | 267° |
| 2026-04-26 01:10 | 44.22111 | -121.80959 | 20156 ft | 363 kts | 267° |
| 2026-04-26 01:10 | 44.21886 | -121.84426 | 19706 ft | 358 kts | 268° |
| 2026-04-26 01:10 | 44.21663 | -121.87845 | 19259 ft | 354 kts | 267° |
| 2026-04-26 01:11 | 44.21441 | -121.91243 | 18809 ft | 350 kts | 267° |
| 2026-04-26 01:11 | 44.21220 | -121.94611 | 18361 ft | 346 kts | 267° |
| 2026-04-26 01:11 | 44.21003 | -121.97900 | 17937 ft | 342 kts | 267° |
| 2026-04-26 01:11 | 44.20789 | -122.01149 | 17530 ft | 337 kts | 267° |
| 2026-04-26 01:12 | 44.20574 | -122.04380 | 17241 ft | 329 kts | 267° |
| 2026-04-26 01:12 | 44.20365 | -122.07501 | 16832 ft | 326 kts | 266° |
| 2026-04-26 01:12 | 44.20157 | -122.10624 | 16407 ft | 323 kts | 266° |
| 2026-04-26 01:12 | 44.19947 | -122.13739 | 15996 ft | 320 kts | 266° |
| 2026-04-26 01:13 | 44.19740 | -122.16807 | 15590 ft | 316 kts | 266° |
| 2026-04-26 01:13 | 44.19535 | -122.19820 | 15184 ft | 313 kts | 266° |
| 2026-04-26 01:13 | 44.19331 | -122.22807 | 14784 ft | 310 kts | 265° |
| 2026-04-26 01:13 | 44.19130 | -122.25754 | 14387 ft | 307 kts | 265° |
| 2026-04-26 01:14 | 44.18927 | -122.28701 | 13993 ft | 304 kts | 265° |
| 2026-04-26 01:14 | 44.18726 | -122.31616 | 13603 ft | 300 kts | 265° |
| 2026-04-26 01:14 | 44.18527 | -122.34474 | 13223 ft | 297 kts | 265° |
| 2026-04-26 01:14 | 44.18330 | -122.37307 | 12838 ft | 294 kts | 265° |
| 2026-04-26 01:15 | 44.18134 | -122.40108 | 12463 ft | 292 kts | 265° |
| 2026-04-26 01:15 | 44.17938 | -122.42918 | 12084 ft | 289 kts | 265° |
| 2026-04-26 01:15 | 44.17741 | -122.45718 | 11714 ft | 294 kts | 266° |
| 2026-04-26 01:15 | 44.17543 | -122.48549 | 11327 ft | 297 kts | 266° |
| 2026-04-26 01:16 | 44.17340 | -122.51417 | 10930 ft | 296 kts | 266° |
| 2026-04-26 01:16 | 44.17139 | -122.54241 | 10543 ft | 295 kts | 266° |
| 2026-04-26 01:16 | 44.16939 | -122.57040 | 10168 ft | 293 kts | 266° |
| 2026-04-26 01:16 | 44.16738 | -122.59843 | 9944 ft | 286 kts | 266° |
| 2026-04-26 01:17 | 44.16538 | -122.62553 | 9678 ft | 282 kts | 264° |
| 2026-04-26 01:17 | 44.16113 | -122.65214 | 9294 ft | 283 kts | 249° |
| 2026-04-26 01:17 | 44.15135 | -122.67571 | 8954 ft | 283 kts | 234° |
| 2026-04-26 01:17 | 44.13907 | -122.69725 | 8594 ft | 282 kts | 231° |
| 2026-04-26 01:18 | 44.12666 | -122.71825 | 8250 ft | 281 kts | 232° |
| 2026-04-26 01:18 | 44.11456 | -122.73952 | 7894 ft | 281 kts | 233° |
| 2026-04-26 01:18 | 44.10281 | -122.76093 | 7540 ft | 279 kts | 234° |
| 2026-04-26 01:18 | 44.09129 | -122.78233 | 7203 ft | 278 kts | 234° |
| 2026-04-26 01:19 | 44.07974 | -122.80389 | 6848 ft | 278 kts | 234° |
| 2026-04-26 01:19 | 44.06818 | -122.82544 | 6501 ft | 277 kts | 234° |
| 2026-04-26 01:19 | 44.05671 | -122.84672 | 6155 ft | 277 kts | 234° |
| 2026-04-26 01:19 | 44.04520 | -122.86797 | 5817 ft | 276 kts | 234° |
| 2026-04-26 01:20 | 44.03366 | -122.88924 | 5470 ft | 275 kts | 234° |
| 2026-04-26 01:20 | 44.02210 | -122.91052 | 5127 ft | 275 kts | 234° |
| 2026-04-26 01:20 | 44.01060 | -122.93167 | 4784 ft | 274 kts | 234° |
| 2026-04-26 01:20 | 43.99921 | -122.95262 | 4429 ft | 274 kts | 235° |
| 2026-04-26 01:21 | 43.98793 | -122.97362 | 4088 ft | 273 kts | 237° |
| 2026-04-26 01:21 | 43.97883 | -122.99667 | 3732 ft | 269 kts | 254° |
| 2026-04-26 01:21 | 43.97580 | -123.02189 | 3423 ft | 262 kts | 271° |
| 2026-04-26 01:21 | 43.97571 | -123.04654 | 3217 ft | 255 kts | 274° |
| 2026-04-26 01:22 | 43.97575 | -123.07050 | 3152 ft | 235 kts | 273° |
| 2026-04-26 01:22 | 43.97537 | -123.09180 | 3062 ft | 211 kts | 272° |
| 2026-04-26 01:22 | 43.97479 | -123.11137 | 2994 ft | 198 kts | 272° |
| 2026-04-26 01:22 | 43.97420 | -123.13077 | 2901 ft | 205 kts | 272° |
| 2026-04-26 01:23 | 43.97430 | -123.15035 | 2757 ft | 201 kts | 281° |
| 2026-04-26 01:23 | 43.97793 | -123.16867 | 2623 ft | 196 kts | 300° |
| 2026-04-26 01:23 | 43.98484 | -123.18470 | 2494 ft | 187 kts | 310° |
| 2026-04-26 01:23 | 43.99280 | -123.19757 | 2360 ft | 170 kts | 321° |
| 2026-04-26 01:24 | 44.00231 | -123.20705 | 2268 ft | 167 kts | 334° |
| 2026-04-26 01:24 | 44.01291 | -123.21357 | 2159 ft | 165 kts | 342° |
| 2026-04-26 01:24 | 44.02381 | -123.21733 | 2064 ft | 157 kts | 354° |
| 2026-04-26 01:24 | 44.03451 | -123.21788 | 1947 ft | 150 kts | 1° |
| 2026-04-26 01:25 | 44.04498 | -123.21773 | 1725 ft | 152 kts | 360° |
| 2026-04-26 01:25 | 44.05551 | -123.21787 | 1567 ft | 152 kts | 359° |
| 2026-04-26 01:25 | 44.06636 | -123.21809 | 1329 ft | 157 kts | 359° |
| 2026-04-26 01:25 | 44.07724 | -123.21827 | 1166 ft | 156 kts | 359° |
| 2026-04-26 01:26 | 44.08836 | -123.21850 | 942 ft | 159 kts | 359° |
| 2026-04-26 01:26 | 44.09938 | -123.21867 | 707 ft | 159 kts | 359° |
| 2026-04-26 01:26 | 44.11034 | -123.21886 | 470 ft | 157 kts | 359° |
| 2026-04-26 01:26 | 44.12100 | -123.21899 | 369 ft | 143 kts | 359° |
| 2026-04-26 01:27 | 44.12769 | -123.21906 | 364 ft | 50 kts | 358° |
| 2026-04-26 01:27 | 44.13112 | -123.21913 | 362 ft | 49 kts | 0° |
| 2026-04-26 01:27 | 44.13390 | -123.21912 | 359 ft | 23 kts | 360° |
| 2026-04-26 01:27 | 44.13469 | -123.21841 | 359 ft | 14 kts | 90° |
| 2026-04-26 01:28 | 44.13425 | -123.21732 | 359 ft | 14 kts | 167° |
| 2026-04-26 01:28 | 44.13318 | -123.21724 | 359 ft | 20 kts | 181° |
| 2026-04-26 01:28 | 44.13128 | -123.21722 | 362 ft | 30 kts | 179° |
| 2026-04-26 01:28 | 44.12920 | -123.21718 | 362 ft | 29 kts | 180° |
| 2026-04-26 01:29 | 44.12719 | -123.21716 | 365 ft | 27 kts | 179° |
| 2026-04-26 01:29 | 44.12529 | -123.21712 | 366 ft | 24 kts | 179° |
| 2026-04-26 01:29 | 44.12378 | -123.21648 | 368 ft | 22 kts | 148° |
| 2026-04-26 01:29 | 44.12252 | -123.21542 | 369 ft | 20 kts | 148° |
| 2026-04-26 01:30 | 44.12117 | -123.21486 | 369 ft | 18 kts | 165° |
| 2026-04-26 01:30 | 44.12050 | -123.21461 | 370 ft | 5 kts | 166° |
| 2026-04-26 01:30 | 44.12018 | -123.21451 | 370 ft | 4 kts | 166° |
| 2026-04-26 01:30 | 44.12014 | -123.21449 | 370 ft | 0 kts | 165° |